sensor_id;sensor_type;location;lat;lon;timestamp;temperature;humidity
55203;DHT22;41077;52.956;6.796;2023-04-24T00:01:28;11.10;99.90
55203;DHT22;41077;52.956;6.796;2023-04-24T00:03:55;11.00;99.90
55203;DHT22;41077;52.956;6.796;2023-04-24T00:06:25;10.90;99.90
55203;DHT22;41077;52.956;6.796;2023-04-24T00:09:01;10.90;99.90
55203;DHT22;41077;52.956;6.796;2023-04-24T00:11:27;10.80;99.90
55203;DHT22;41077;52.956;6.796;2023-04-24T00:13:53;10.80;99.90
55203;DHT22;41077;52.956;6.796;2023-04-24T00:16:19;10.70;99.90
55203;DHT22;41077;52.956;6.796;2023-04-24T00:18:44;10.60;99.90
55203;DHT22;41077;52.956;6.796;2023-04-24T00:21:11;10.60;99.90
55203;DHT22;41077;52.956;6.796;2023-04-24T00:23:36;10.50;99.90
55203;DHT22;41077;52.956;6.796;2023-04-24T00:26:02;10.60;99.90
55203;DHT22;41077;52.956;6.796;2023-04-24T00:28:28;10.50;99.90
55203;DHT22;41077;52.956;6.796;2023-04-24T00:30:54;10.50;99.90
55203;DHT22;41077;52.956;6.796;2023-04-24T00:33:19;10.50;99.90
55203;DHT22;41077;52.956;6.796;2023-04-24T00:35:46;10.50;99.90
55203;DHT22;41077;52.956;6.796;2023-04-24T00:38:11;10.50;99.90
55203;DHT22;41077;52.956;6.796;2023-04-24T00:40:37;10.50;99.90
55203;DHT22;41077;52.956;6.796;2023-04-24T00:43:03;10.50;99.90
55203;DHT22;41077;52.956;6.796;2023-04-24T00:45:29;10.50;99.90
55203;DHT22;41077;52.956;6.796;2023-04-24T00:47:56;10.50;99.90
55203;DHT22;41077;52.956;6.796;2023-04-24T00:50:24;10.40;99.90
55203;DHT22;41077;52.956;6.796;2023-04-24T00:52:50;10.50;99.90
55203;DHT22;41077;52.956;6.796;2023-04-24T00:55:16;10.40;99.90
55203;DHT22;41077;52.956;6.796;2023-04-24T00:57:43;10.40;99.90
55203;DHT22;41077;52.956;6.796;2023-04-24T01:00:09;10.40;99.90
55203;DHT22;41077;52.956;6.796;2023-04-24T01:02:39;10.40;99.90
55203;DHT22;41077;52.956;6.796;2023-04-24T01:05:09;10.40;99.90
55203;DHT22;41077;52.956;6.796;2023-04-24T01:07:35;10.50;99.90
55203;DHT22;41077;52.956;6.796;2023-04-24T01:10:02;10.50;99.90
55203;DHT22;41077;52.956;6.796;2023-04-24T01:12:28;10.50;99.90
55203;DHT22;41077;52.956;6.796;2023-04-24T01:14:54;10.50;99.90
55203;DHT22;41077;52.956;6.796;2023-04-24T01:17:20;10.50;99.90
55203;DHT22;41077;52.956;6.796;2023-04-24T01:19:46;10.50;99.90
55203;DHT22;41077;52.956;6.796;2023-04-24T01:22:15;10.50;99.90
55203;DHT22;41077;52.956;6.796;2023-04-24T01:24:42;10.50;99.90
55203;DHT22;41077;52.956;6.796;2023-04-24T01:27:09;10.60;99.90
55203;DHT22;41077;52.956;6.796;2023-04-24T01:29:36;10.60;99.90
55203;DHT22;41077;52.956;6.796;2023-04-24T01:32:03;10.60;99.90
55203;DHT22;41077;52.956;6.796;2023-04-24T01:34:29;10.60;99.90
55203;DHT22;41077;52.956;6.796;2023-04-24T01:36:55;10.60;99.90
55203;DHT22;41077;52.956;6.796;2023-04-24T01:39:22;10.50;99.90
55203;DHT22;41077;52.956;6.796;2023-04-24T01:41:51;10.50;99.90
55203;DHT22;41077;52.956;6.796;2023-04-24T01:44:18;10.50;99.90
55203;DHT22;41077;52.956;6.796;2023-04-24T01:46:43;10.70;99.90
55203;DHT22;41077;52.956;6.796;2023-04-24T01:49:10;10.70;99.90
55203;DHT22;41077;52.956;6.796;2023-04-24T01:51:36;10.80;99.90
55203;DHT22;41077;52.956;6.796;2023-04-24T01:54:02;10.70;99.90
55203;DHT22;41077;52.956;6.796;2023-04-24T01:56:29;10.70;99.90
55203;DHT22;41077;52.956;6.796;2023-04-24T01:58:58;10.60;99.90
55203;DHT22;41077;52.956;6.796;2023-04-24T02:01:24;10.60;99.90
55203;DHT22;41077;52.956;6.796;2023-04-24T02:03:51;10.60;99.90
55203;DHT22;41077;52.956;6.796;2023-04-24T02:06:16;10.60;99.90
55203;DHT22;41077;52.956;6.796;2023-04-24T02:08:42;10.50;99.90
55203;DHT22;41077;52.956;6.796;2023-04-24T02:11:10;10.40;99.90
55203;DHT22;41077;52.956;6.796;2023-04-24T02:13:36;10.40;99.90
55203;DHT22;41077;52.956;6.796;2023-04-24T02:16:02;10.40;99.90
55203;DHT22;41077;52.956;6.796;2023-04-24T02:18:28;10.30;99.90
55203;DHT22;41077;52.956;6.796;2023-04-24T02:20:53;10.40;99.90
55203;DHT22;41077;52.956;6.796;2023-04-24T02:23:19;10.30;99.90
55203;DHT22;41077;52.956;6.796;2023-04-24T02:25:45;10.30;99.90
55203;DHT22;41077;52.956;6.796;2023-04-24T02:28:11;10.20;99.90
55203;DHT22;41077;52.956;6.796;2023-04-24T02:30:36;10.30;99.90
55203;DHT22;41077;52.956;6.796;2023-04-24T02:33:02;10.20;99.90
55203;DHT22;41077;52.956;6.796;2023-04-24T02:35:28;10.20;99.90
55203;DHT22;41077;52.956;6.796;2023-04-24T02:37:54;10.20;99.90
55203;DHT22;41077;52.956;6.796;2023-04-24T02:40:20;10.20;99.90
55203;DHT22;41077;52.956;6.796;2023-04-24T02:42:45;10.10;99.90
55203;DHT22;41077;52.956;6.796;2023-04-24T02:45:11;10.20;99.90
55203;DHT22;41077;52.956;6.796;2023-04-24T02:47:37;10.10;99.90
55203;DHT22;41077;52.956;6.796;2023-04-24T02:50:03;10.10;99.90
55203;DHT22;41077;52.956;6.796;2023-04-24T02:52:29;10.10;99.90
55203;DHT22;41077;52.956;6.796;2023-04-24T02:54:55;10.10;99.90
55203;DHT22;41077;52.956;6.796;2023-04-24T02:57:20;10.10;99.90
55203;DHT22;41077;52.956;6.796;2023-04-24T02:59:46;10.10;99.90
55203;DHT22;41077;52.956;6.796;2023-04-24T03:02:12;10.10;99.90
55203;DHT22;41077;52.956;6.796;2023-04-24T03:04:37;10.00;99.90
55203;DHT22;41077;52.956;6.796;2023-04-24T03:07:05;10.10;99.90
55203;DHT22;41077;52.956;6.796;2023-04-24T03:09:31;10.10;99.90
55203;DHT22;41077;52.956;6.796;2023-04-24T03:11:57;10.20;99.90
55203;DHT22;41077;52.956;6.796;2023-04-24T03:14:23;10.10;99.90
55203;DHT22;41077;52.956;6.796;2023-04-24T03:16:49;10.00;99.90
55203;DHT22;41077;52.956;6.796;2023-04-24T03:19:15;10.10;99.90
55203;DHT22;41077;52.956;6.796;2023-04-24T03:21:41;10.10;99.90
55203;DHT22;41077;52.956;6.796;2023-04-24T03:24:08;10.10;99.90
55203;DHT22;41077;52.956;6.796;2023-04-24T03:26:34;10.10;99.90
55203;DHT22;41077;52.956;6.796;2023-04-24T03:29:00;10.10;99.90
55203;DHT22;41077;52.956;6.796;2023-04-24T03:31:26;10.00;99.90
55203;DHT22;41077;52.956;6.796;2023-04-24T03:33:52;10.00;99.90
55203;DHT22;41077;52.956;6.796;2023-04-24T03:36:17;10.00;99.90
55203;DHT22;41077;52.956;6.796;2023-04-24T03:38:44;10.00;99.90
55203;DHT22;41077;52.956;6.796;2023-04-24T03:41:10;10.10;99.90
55203;DHT22;41077;52.956;6.796;2023-04-24T03:43:37;10.00;99.90
55203;DHT22;41077;52.956;6.796;2023-04-24T03:46:02;10.00;99.90
55203;DHT22;41077;52.956;6.796;2023-04-24T03:48:28;10.00;99.90
55203;DHT22;41077;52.956;6.796;2023-04-24T03:50:54;10.00;99.90
55203;DHT22;41077;52.956;6.796;2023-04-24T03:53:19;9.90;99.90
55203;DHT22;41077;52.956;6.796;2023-04-24T03:55:45;10.10;99.90
55203;DHT22;41077;52.956;6.796;2023-04-24T03:58:11;10.00;99.90
55203;DHT22;41077;52.956;6.796;2023-04-24T04:00:37;9.90;99.90
55203;DHT22;41077;52.956;6.796;2023-04-24T04:03:03;9.90;99.90
55203;DHT22;41077;52.956;6.796;2023-04-24T04:05:29;10.00;99.90
55203;DHT22;41077;52.956;6.796;2023-04-24T04:07:55;9.90;99.90
55203;DHT22;41077;52.956;6.796;2023-04-24T04:10:20;9.90;99.90
55203;DHT22;41077;52.956;6.796;2023-04-24T04:12:46;9.90;99.90
55203;DHT22;41077;52.956;6.796;2023-04-24T04:15:12;9.90;99.90
55203;DHT22;41077;52.956;6.796;2023-04-24T04:17:38;9.80;99.90
55203;DHT22;41077;52.956;6.796;2023-04-24T04:20:04;9.90;99.90
55203;DHT22;41077;52.956;6.796;2023-04-24T04:22:36;9.90;99.90
55203;DHT22;41077;52.956;6.796;2023-04-24T04:25:02;10.00;99.90
55203;DHT22;41077;52.956;6.796;2023-04-24T04:27:28;9.90;99.90
55203;DHT22;41077;52.956;6.796;2023-04-24T04:29:54;9.80;99.90
55203;DHT22;41077;52.956;6.796;2023-04-24T04:32:22;9.80;99.90
55203;DHT22;41077;52.956;6.796;2023-04-24T04:34:47;9.90;99.90
55203;DHT22;41077;52.956;6.796;2023-04-24T04:37:14;10.00;99.90
55203;DHT22;41077;52.956;6.796;2023-04-24T04:39:40;9.90;99.90
55203;DHT22;41077;52.956;6.796;2023-04-24T04:42:06;9.90;99.90
55203;DHT22;41077;52.956;6.796;2023-04-24T04:44:32;10.00;99.90
55203;DHT22;41077;52.956;6.796;2023-04-24T04:46:58;9.90;99.90
55203;DHT22;41077;52.956;6.796;2023-04-24T04:49:25;9.90;99.90
55203;DHT22;41077;52.956;6.796;2023-04-24T04:51:53;10.10;99.90
55203;DHT22;41077;52.956;6.796;2023-04-24T04:54:19;10.00;99.90
55203;DHT22;41077;52.956;6.796;2023-04-24T04:56:45;9.90;99.90
55203;DHT22;41077;52.956;6.796;2023-04-24T04:59:10;10.00;99.90
55203;DHT22;41077;52.956;6.796;2023-04-24T05:01:36;10.00;99.90
55203;DHT22;41077;52.956;6.796;2023-04-24T05:04:02;9.90;99.90
55203;DHT22;41077;52.956;6.796;2023-04-24T05:06:27;9.90;99.90
55203;DHT22;41077;52.956;6.796;2023-04-24T05:08:53;10.00;99.90
55203;DHT22;41077;52.956;6.796;2023-04-24T05:11:22;10.00;99.90
55203;DHT22;41077;52.956;6.796;2023-04-24T05:13:48;9.90;99.90
55203;DHT22;41077;52.956;6.796;2023-04-24T05:16:14;10.00;99.90
55203;DHT22;41077;52.956;6.796;2023-04-24T05:18:39;10.00;99.90
55203;DHT22;41077;52.956;6.796;2023-04-24T05:21:05;9.90;99.90
55203;DHT22;41077;52.956;6.796;2023-04-24T05:23:31;9.90;99.90
55203;DHT22;41077;52.956;6.796;2023-04-24T05:25:57;9.90;99.90
55203;DHT22;41077;52.956;6.796;2023-04-24T05:28:22;9.90;99.90
55203;DHT22;41077;52.956;6.796;2023-04-24T05:30:48;9.80;99.90
55203;DHT22;41077;52.956;6.796;2023-04-24T05:33:14;9.80;99.90
55203;DHT22;41077;52.956;6.796;2023-04-24T05:35:40;9.80;99.90
55203;DHT22;41077;52.956;6.796;2023-04-24T05:38:12;9.90;99.90
55203;DHT22;41077;52.956;6.796;2023-04-24T05:40:38;9.90;99.90
55203;DHT22;41077;52.956;6.796;2023-04-24T05:43:04;9.90;99.90
55203;DHT22;41077;52.956;6.796;2023-04-24T05:45:29;9.90;99.90
55203;DHT22;41077;52.956;6.796;2023-04-24T05:47:55;9.80;99.90
55203;DHT22;41077;52.956;6.796;2023-04-24T05:50:21;9.70;99.90
55203;DHT22;41077;52.956;6.796;2023-04-24T05:52:47;9.80;99.90
55203;DHT22;41077;52.956;6.796;2023-04-24T05:55:12;9.80;99.90
55203;DHT22;41077;52.956;6.796;2023-04-24T05:57:38;9.70;99.90
55203;DHT22;41077;52.956;6.796;2023-04-24T06:00:05;9.70;99.90
55203;DHT22;41077;52.956;6.796;2023-04-24T06:02:31;9.80;99.90
55203;DHT22;41077;52.956;6.796;2023-04-24T06:04:58;9.80;99.90
55203;DHT22;41077;52.956;6.796;2023-04-24T06:07:25;9.80;99.90
55203;DHT22;41077;52.956;6.796;2023-04-24T06:09:53;9.80;99.90
55203;DHT22;41077;52.956;6.796;2023-04-24T06:12:19;9.80;99.90
55203;DHT22;41077;52.956;6.796;2023-04-24T06:14:45;9.80;99.90
55203;DHT22;41077;52.956;6.796;2023-04-24T06:17:11;9.80;99.90
55203;DHT22;41077;52.956;6.796;2023-04-24T06:19:36;9.80;99.90
55203;DHT22;41077;52.956;6.796;2023-04-24T06:22:02;9.90;99.90
55203;DHT22;41077;52.956;6.796;2023-04-24T06:24:28;9.80;99.90
55203;DHT22;41077;52.956;6.796;2023-04-24T06:26:54;9.80;99.90
55203;DHT22;41077;52.956;6.796;2023-04-24T06:29:19;9.80;99.90
55203;DHT22;41077;52.956;6.796;2023-04-24T06:31:45;9.80;99.90
55203;DHT22;41077;52.956;6.796;2023-04-24T06:34:11;9.80;99.90
55203;DHT22;41077;52.956;6.796;2023-04-24T06:36:36;9.80;99.90
55203;DHT22;41077;52.956;6.796;2023-04-24T06:39:02;9.80;99.90
55203;DHT22;41077;52.956;6.796;2023-04-24T06:41:28;9.90;99.90
55203;DHT22;41077;52.956;6.796;2023-04-24T06:43:54;9.80;99.90
55203;DHT22;41077;52.956;6.796;2023-04-24T06:46:20;9.80;99.90
55203;DHT22;41077;52.956;6.796;2023-04-24T06:48:49;9.90;99.90
55203;DHT22;41077;52.956;6.796;2023-04-24T06:51:16;10.00;99.90
55203;DHT22;41077;52.956;6.796;2023-04-24T06:53:43;9.90;99.90
55203;DHT22;41077;52.956;6.796;2023-04-24T06:56:09;9.90;99.90
55203;DHT22;41077;52.956;6.796;2023-04-24T06:58:35;9.90;99.90
55203;DHT22;41077;52.956;6.796;2023-04-24T07:01:00;9.90;99.90
55203;DHT22;41077;52.956;6.796;2023-04-24T07:03:26;10.00;99.90
55203;DHT22;41077;52.956;6.796;2023-04-24T07:05:52;10.00;99.90
55203;DHT22;41077;52.956;6.796;2023-04-24T07:08:18;9.90;99.90
55203;DHT22;41077;52.956;6.796;2023-04-24T07:10:45;9.90;99.90
55203;DHT22;41077;52.956;6.796;2023-04-24T07:13:11;9.90;99.90
55203;DHT22;41077;52.956;6.796;2023-04-24T07:15:37;10.00;99.90
55203;DHT22;41077;52.956;6.796;2023-04-24T07:18:03;10.00;99.90
55203;DHT22;41077;52.956;6.796;2023-04-24T07:20:28;10.00;99.90
55203;DHT22;41077;52.956;6.796;2023-04-24T07:22:54;10.10;99.90
55203;DHT22;41077;52.956;6.796;2023-04-24T07:25:20;10.10;99.90
55203;DHT22;41077;52.956;6.796;2023-04-24T07:27:46;10.20;99.90
55203;DHT22;41077;52.956;6.796;2023-04-24T07:30:11;10.20;99.90
55203;DHT22;41077;52.956;6.796;2023-04-24T07:32:37;10.20;99.90
55203;DHT22;41077;52.956;6.796;2023-04-24T07:35:03;10.30;99.90
55203;DHT22;41077;52.956;6.796;2023-04-24T07:37:28;10.30;99.90
55203;DHT22;41077;52.956;6.796;2023-04-24T07:39:55;10.30;99.90
55203;DHT22;41077;52.956;6.796;2023-04-24T07:42:20;10.30;99.90
55203;DHT22;41077;52.956;6.796;2023-04-24T07:44:47;10.40;99.90
55203;DHT22;41077;52.956;6.796;2023-04-24T07:47:13;10.40;99.90
55203;DHT22;41077;52.956;6.796;2023-04-24T07:49:42;10.40;99.90
55203;DHT22;41077;52.956;6.796;2023-04-24T07:52:08;10.40;99.90
55203;DHT22;41077;52.956;6.796;2023-04-24T07:54:34;10.40;99.90
55203;DHT22;41077;52.956;6.796;2023-04-24T07:56:59;10.30;99.90
55203;DHT22;41077;52.956;6.796;2023-04-24T07:59:26;10.30;99.90
55203;DHT22;41077;52.956;6.796;2023-04-24T08:01:51;10.20;99.90
55203;DHT22;41077;52.956;6.796;2023-04-24T08:04:18;10.20;99.90
55203;DHT22;41077;52.956;6.796;2023-04-24T08:06:44;10.20;99.90
55203;DHT22;41077;52.956;6.796;2023-04-24T08:09:09;10.20;99.90
55203;DHT22;41077;52.956;6.796;2023-04-24T08:11:35;10.20;99.90
55203;DHT22;41077;52.956;6.796;2023-04-24T08:14:01;10.20;99.90
55203;DHT22;41077;52.956;6.796;2023-04-24T08:16:27;10.20;99.90
55203;DHT22;41077;52.956;6.796;2023-04-24T08:18:53;10.30;99.90
55203;DHT22;41077;52.956;6.796;2023-04-24T08:21:19;10.20;99.90
55203;DHT22;41077;52.956;6.796;2023-04-24T08:23:46;10.20;99.90
55203;DHT22;41077;52.956;6.796;2023-04-24T08:26:12;10.10;99.90
55203;DHT22;41077;52.956;6.796;2023-04-24T08:28:38;10.10;99.90
55203;DHT22;41077;52.956;6.796;2023-04-24T08:31:04;10.10;99.90
55203;DHT22;41077;52.956;6.796;2023-04-24T08:33:30;10.10;99.90
55203;DHT22;41077;52.956;6.796;2023-04-24T08:36:03;10.00;99.90
55203;DHT22;41077;52.956;6.796;2023-04-24T08:38:29;10.00;99.90
55203;DHT22;41077;52.956;6.796;2023-04-24T08:40:57;9.90;99.90
55203;DHT22;41077;52.956;6.796;2023-04-24T08:43:23;9.90;99.90
55203;DHT22;41077;52.956;6.796;2023-04-24T08:45:50;9.80;99.90
55203;DHT22;41077;52.956;6.796;2023-04-24T08:48:16;9.80;99.90
55203;DHT22;41077;52.956;6.796;2023-04-24T08:50:43;9.80;99.90
55203;DHT22;41077;52.956;6.796;2023-04-24T08:53:10;9.80;99.90
55203;DHT22;41077;52.956;6.796;2023-04-24T08:55:37;9.80;99.90
55203;DHT22;41077;52.956;6.796;2023-04-24T08:58:03;9.80;99.90
55203;DHT22;41077;52.956;6.796;2023-04-24T09:00:30;9.70;99.90
55203;DHT22;41077;52.956;6.796;2023-04-24T09:02:56;9.70;99.90
55203;DHT22;41077;52.956;6.796;2023-04-24T09:05:23;9.70;99.90
55203;DHT22;41077;52.956;6.796;2023-04-24T09:07:55;9.70;99.90
55203;DHT22;41077;52.956;6.796;2023-04-24T09:10:23;9.60;99.90
55203;DHT22;41077;52.956;6.796;2023-04-24T09:12:51;9.60;99.90
55203;DHT22;41077;52.956;6.796;2023-04-24T09:15:18;9.50;99.90
55203;DHT22;41077;52.956;6.796;2023-04-24T09:17:46;9.50;99.90
55203;DHT22;41077;52.956;6.796;2023-04-24T09:20:12;9.50;99.90
55203;DHT22;41077;52.956;6.796;2023-04-24T09:22:38;9.40;99.90
55203;DHT22;41077;52.956;6.796;2023-04-24T09:25:07;9.40;99.90
55203;DHT22;41077;52.956;6.796;2023-04-24T09:27:34;9.30;99.90
55203;DHT22;41077;52.956;6.796;2023-04-24T09:30:01;9.30;99.90
55203;DHT22;41077;52.956;6.796;2023-04-24T09:32:27;9.30;99.90
55203;DHT22;41077;52.956;6.796;2023-04-24T09:35:09;9.20;99.90
55203;DHT22;41077;52.956;6.796;2023-04-24T09:37:40;9.20;99.90
55203;DHT22;41077;52.956;6.796;2023-04-24T09:40:11;9.20;99.90
55203;DHT22;41077;52.956;6.796;2023-04-24T09:42:43;9.20;99.90
55203;DHT22;41077;52.956;6.796;2023-04-24T09:45:10;9.10;99.90
55203;DHT22;41077;52.956;6.796;2023-04-24T09:47:40;9.20;99.90
55203;DHT22;41077;52.956;6.796;2023-04-24T09:50:16;9.20;99.90
55203;DHT22;41077;52.956;6.796;2023-04-24T09:52:44;9.20;99.90
55203;DHT22;41077;52.956;6.796;2023-04-24T09:55:21;9.10;99.90
55203;DHT22;41077;52.956;6.796;2023-04-24T09:58:01;9.10;99.90
55203;DHT22;41077;52.956;6.796;2023-04-24T10:00:31;9.10;99.90
55203;DHT22;41077;52.956;6.796;2023-04-24T10:03:01;9.20;99.90
55203;DHT22;41077;52.956;6.796;2023-04-24T10:05:34;9.20;99.90
55203;DHT22;41077;52.956;6.796;2023-04-24T10:08:08;9.10;99.90
55203;DHT22;41077;52.956;6.796;2023-04-24T10:10:39;9.20;99.90
55203;DHT22;41077;52.956;6.796;2023-04-24T10:13:07;9.10;99.90
55203;DHT22;41077;52.956;6.796;2023-04-24T10:15:33;9.20;99.90
55203;DHT22;41077;52.956;6.796;2023-04-24T10:17:59;9.20;99.90
55203;DHT22;41077;52.956;6.796;2023-04-24T10:20:27;9.10;99.90
55203;DHT22;41077;52.956;6.796;2023-04-24T10:22:55;9.20;99.90
55203;DHT22;41077;52.956;6.796;2023-04-24T10:25:27;9.20;99.90
55203;DHT22;41077;52.956;6.796;2023-04-24T10:27:54;9.20;99.90
55203;DHT22;41077;52.956;6.796;2023-04-24T10:30:23;9.20;99.90
55203;DHT22;41077;52.956;6.796;2023-04-24T10:32:48;9.20;99.90
55203;DHT22;41077;52.956;6.796;2023-04-24T10:35:15;9.20;99.90
55203;DHT22;41077;52.956;6.796;2023-04-24T10:38:01;9.30;99.90
55203;DHT22;41077;52.956;6.796;2023-04-24T10:40:30;9.20;99.90
55203;DHT22;41077;52.956;6.796;2023-04-24T10:42:57;9.20;99.90
55203;DHT22;41077;52.956;6.796;2023-04-24T10:45:23;9.30;99.90
55203;DHT22;41077;52.956;6.796;2023-04-24T10:48:00;9.30;99.90
55203;DHT22;41077;52.956;6.796;2023-04-24T10:50:53;9.40;99.90
55203;DHT22;41077;52.956;6.796;2023-04-24T10:53:18;9.40;99.90
55203;DHT22;41077;52.956;6.796;2023-04-24T10:58:44;9.50;99.90
55203;DHT22;41077;52.956;6.796;2023-04-24T11:01:33;9.60;99.90
55203;DHT22;41077;52.956;6.796;2023-04-24T11:04:00;9.60;99.90
55203;DHT22;41077;52.956;6.796;2023-04-24T11:06:36;9.50;99.90
55203;DHT22;41077;52.956;6.796;2023-04-24T11:09:06;9.50;99.90
55203;DHT22;41077;52.956;6.796;2023-04-24T11:11:33;9.50;99.90
55203;DHT22;41077;52.956;6.796;2023-04-24T11:16:44;9.40;99.90
55203;DHT22;41077;52.956;6.796;2023-04-24T11:24:23;9.60;99.90
55203;DHT22;41077;52.956;6.796;2023-04-24T11:26:55;9.60;99.90
55203;DHT22;41077;52.956;6.796;2023-04-24T11:29:21;9.70;99.90
55203;DHT22;41077;52.956;6.796;2023-04-24T11:31:47;9.80;99.90
55203;DHT22;41077;52.956;6.796;2023-04-24T11:34:17;9.90;99.90
55203;DHT22;41077;52.956;6.796;2023-04-24T11:36:46;10.00;99.90
55203;DHT22;41077;52.956;6.796;2023-04-24T11:39:15;9.90;99.90
55203;DHT22;41077;52.956;6.796;2023-04-24T11:41:41;10.00;99.90
55203;DHT22;41077;52.956;6.796;2023-04-24T11:44:08;10.00;99.90
55203;DHT22;41077;52.956;6.796;2023-04-24T11:46:34;9.80;99.90
55203;DHT22;41077;52.956;6.796;2023-04-24T11:49:00;9.70;99.90
55203;DHT22;41077;52.956;6.796;2023-04-24T11:51:27;9.60;99.90
55203;DHT22;41077;52.956;6.796;2023-04-24T11:53:53;9.50;99.90
55203;DHT22;41077;52.956;6.796;2023-04-24T11:56:21;9.70;99.90
55203;DHT22;41077;52.956;6.796;2023-04-24T11:58:47;9.70;99.90
55203;DHT22;41077;52.956;6.796;2023-04-24T12:01:13;9.70;99.90
55203;DHT22;41077;52.956;6.796;2023-04-24T12:03:39;9.70;99.90
55203;DHT22;41077;52.956;6.796;2023-04-24T12:06:10;9.80;99.90
55203;DHT22;41077;52.956;6.796;2023-04-24T12:08:36;9.90;99.90
55203;DHT22;41077;52.956;6.796;2023-04-24T12:11:03;9.90;99.90
55203;DHT22;41077;52.956;6.796;2023-04-24T12:13:29;10.00;99.90
55203;DHT22;41077;52.956;6.796;2023-04-24T12:15:57;9.90;99.90
55203;DHT22;41077;52.956;6.796;2023-04-24T12:18:23;9.80;99.90
55203;DHT22;41077;52.956;6.796;2023-04-24T12:20:49;9.70;99.90
55203;DHT22;41077;52.956;6.796;2023-04-24T12:23:15;9.70;99.90
55203;DHT22;41077;52.956;6.796;2023-04-24T12:25:41;9.70;99.90
55203;DHT22;41077;52.956;6.796;2023-04-24T12:28:12;9.80;99.90
55203;DHT22;41077;52.956;6.796;2023-04-24T12:30:48;9.80;99.90
55203;DHT22;41077;52.956;6.796;2023-04-24T12:33:21;9.70;99.90
55203;DHT22;41077;52.956;6.796;2023-04-24T12:35:48;9.70;99.90
55203;DHT22;41077;52.956;6.796;2023-04-24T12:38:16;9.60;99.90
55203;DHT22;41077;52.956;6.796;2023-04-24T12:40:46;9.60;99.90
55203;DHT22;41077;52.956;6.796;2023-04-24T12:43:17;9.60;99.90
55203;DHT22;41077;52.956;6.796;2023-04-24T12:45:43;9.70;99.90
55203;DHT22;41077;52.956;6.796;2023-04-24T12:48:09;9.60;99.90
55203;DHT22;41077;52.956;6.796;2023-04-24T12:50:35;9.60;99.90
55203;DHT22;41077;52.956;6.796;2023-04-24T12:53:01;9.70;99.90
55203;DHT22;41077;52.956;6.796;2023-04-24T12:55:26;9.60;99.90
55203;DHT22;41077;52.956;6.796;2023-04-24T12:57:52;9.70;99.90
55203;DHT22;41077;52.956;6.796;2023-04-24T13:00:20;9.70;99.90
55203;DHT22;41077;52.956;6.796;2023-04-24T13:02:46;9.70;99.90
55203;DHT22;41077;52.956;6.796;2023-04-24T13:05:12;9.70;99.90
55203;DHT22;41077;52.956;6.796;2023-04-24T13:07:39;9.80;99.90
55203;DHT22;41077;52.956;6.796;2023-04-24T13:10:05;9.70;99.90
55203;DHT22;41077;52.956;6.796;2023-04-24T13:12:32;9.90;99.90
55203;DHT22;41077;52.956;6.796;2023-04-24T13:14:58;9.80;99.90
55203;DHT22;41077;52.956;6.796;2023-04-24T13:17:24;9.80;99.90
55203;DHT22;41077;52.956;6.796;2023-04-24T13:19:51;9.90;99.90
55203;DHT22;41077;52.956;6.796;2023-04-24T13:22:17;9.80;99.90
55203;DHT22;41077;52.956;6.796;2023-04-24T13:24:44;9.90;99.90
55203;DHT22;41077;52.956;6.796;2023-04-24T13:27:10;10.00;99.90
55203;DHT22;41077;52.956;6.796;2023-04-24T13:29:37;9.80;99.90
55203;DHT22;41077;52.956;6.796;2023-04-24T13:32:03;9.90;99.90
55203;DHT22;41077;52.956;6.796;2023-04-24T13:34:28;9.90;99.90
55203;DHT22;41077;52.956;6.796;2023-04-24T13:36:56;9.90;99.90
55203;DHT22;41077;52.956;6.796;2023-04-24T13:39:22;10.00;99.90
55203;DHT22;41077;52.956;6.796;2023-04-24T13:41:48;10.00;99.90
55203;DHT22;41077;52.956;6.796;2023-04-24T13:44:15;10.00;99.90
55203;DHT22;41077;52.956;6.796;2023-04-24T13:46:42;10.00;99.90
55203;DHT22;41077;52.956;6.796;2023-04-24T13:49:10;10.00;99.90
55203;DHT22;41077;52.956;6.796;2023-04-24T13:51:35;10.10;99.90
55203;DHT22;41077;52.956;6.796;2023-04-24T13:54:01;10.10;99.90
55203;DHT22;41077;52.956;6.796;2023-04-24T13:56:27;10.00;99.90
55203;DHT22;41077;52.956;6.796;2023-04-24T13:58:53;10.10;99.90
55203;DHT22;41077;52.956;6.796;2023-04-24T14:01:19;10.20;99.90
55203;DHT22;41077;52.956;6.796;2023-04-24T14:03:49;10.00;99.90
55203;DHT22;41077;52.956;6.796;2023-04-24T14:06:15;10.00;99.90
55203;DHT22;41077;52.956;6.796;2023-04-24T14:08:41;10.10;99.90
55203;DHT22;41077;52.956;6.796;2023-04-24T14:11:06;10.30;99.90
55203;DHT22;41077;52.956;6.796;2023-04-24T14:13:32;10.40;99.90
55203;DHT22;41077;52.956;6.796;2023-04-24T14:15:58;10.30;99.90
55203;DHT22;41077;52.956;6.796;2023-04-24T14:18:24;10.40;99.90
55203;DHT22;41077;52.956;6.796;2023-04-24T14:20:49;10.40;99.90
55203;DHT22;41077;52.956;6.796;2023-04-24T14:23:15;10.60;99.90
55203;DHT22;41077;52.956;6.796;2023-04-24T14:25:41;10.50;99.90
55203;DHT22;41077;52.956;6.796;2023-04-24T14:28:07;10.40;99.90
55203;DHT22;41077;52.956;6.796;2023-04-24T14:30:32;10.40;99.90
55203;DHT22;41077;52.956;6.796;2023-04-24T14:32:58;10.30;99.90
55203;DHT22;41077;52.956;6.796;2023-04-24T14:35:24;10.20;99.90
55203;DHT22;41077;52.956;6.796;2023-04-24T14:37:50;10.10;99.90
55203;DHT22;41077;52.956;6.796;2023-04-24T14:40:16;10.10;99.90
55203;DHT22;41077;52.956;6.796;2023-04-24T14:42:42;10.20;99.90
55203;DHT22;41077;52.956;6.796;2023-04-24T14:45:08;10.00;99.90
55203;DHT22;41077;52.956;6.796;2023-04-24T14:47:34;10.00;99.90
55203;DHT22;41077;52.956;6.796;2023-04-24T14:49:59;9.90;99.90
55203;DHT22;41077;52.956;6.796;2023-04-24T14:52:25;9.80;99.90
55203;DHT22;41077;52.956;6.796;2023-04-24T14:54:51;9.80;99.90
55203;DHT22;41077;52.956;6.796;2023-04-24T14:57:16;9.80;99.90
55203;DHT22;41077;52.956;6.796;2023-04-24T14:59:42;9.80;99.90
55203;DHT22;41077;52.956;6.796;2023-04-24T15:02:08;9.60;99.90
55203;DHT22;41077;52.956;6.796;2023-04-24T15:04:33;9.60;99.90
55203;DHT22;41077;52.956;6.796;2023-04-24T15:07:00;9.60;99.90
55203;DHT22;41077;52.956;6.796;2023-04-24T15:09:26;9.50;99.90
55203;DHT22;41077;52.956;6.796;2023-04-24T15:11:52;9.40;99.90
55203;DHT22;41077;52.956;6.796;2023-04-24T15:14:18;9.40;99.90
55203;DHT22;41077;52.956;6.796;2023-04-24T15:16:44;9.50;99.90
55203;DHT22;41077;52.956;6.796;2023-04-24T15:19:10;9.50;99.90
55203;DHT22;41077;52.956;6.796;2023-04-24T15:21:37;9.40;99.90
55203;DHT22;41077;52.956;6.796;2023-04-24T15:24:04;9.40;99.90
55203;DHT22;41077;52.956;6.796;2023-04-24T15:26:30;9.30;99.90
55203;DHT22;41077;52.956;6.796;2023-04-24T15:28:56;9.30;99.90
55203;DHT22;41077;52.956;6.796;2023-04-24T15:31:21;9.20;99.90
55203;DHT22;41077;52.956;6.796;2023-04-24T15:33:49;9.10;99.90
55203;DHT22;41077;52.956;6.796;2023-04-24T15:36:15;9.10;99.90
55203;DHT22;41077;52.956;6.796;2023-04-24T15:38:42;9.00;99.90
55203;DHT22;41077;52.956;6.796;2023-04-24T15:41:08;9.00;99.90
55203;DHT22;41077;52.956;6.796;2023-04-24T15:43:34;9.00;99.90
55203;DHT22;41077;52.956;6.796;2023-04-24T15:46:00;9.00;99.90
55203;DHT22;41077;52.956;6.796;2023-04-24T15:48:30;9.10;99.90